createdAt,value
2018-12-11T00:02:13.223Z,98225.31
2018-12-11T00:04:41.488Z,98233.84
2018-12-11T00:07:09.758Z,98230.38
2018-12-11T00:09:38.030Z,98234.70
2018-12-11T00:12:06.290Z,98230.96
2018-12-11T00:14:34.610Z,98225.68
2018-12-11T00:17:02.988Z,98219.46
2018-12-11T00:19:31.261Z,98224.91
2018-12-11T00:21:59.517Z,98227.99
2018-12-11T00:24:27.772Z,98225.11
2018-12-11T00:26:56.047Z,98225.87
2018-12-11T00:29:24.312Z,98228.52
2018-12-11T00:31:52.570Z,98221.33
2018-12-11T00:34:20.837Z,98223.89
2018-12-11T00:36:49.076Z,98223.02
2018-12-11T00:39:17.333Z,98233.25
2018-12-11T00:41:45.614Z,98231.11
2018-12-11T00:44:13.863Z,98235.09
2018-12-11T00:46:42.116Z,98233.17
2018-12-11T00:49:10.390Z,98236.42
2018-12-11T00:51:38.708Z,98231.24
2018-12-11T00:54:06.967Z,98230.74
2018-12-11T00:56:35.240Z,98234.95
2018-12-11T00:59:03.567Z,98228.33
2018-12-11T01:01:31.906Z,98223.31
2018-12-11T01:04:00.205Z,98233.80
2018-12-11T01:06:28.547Z,98209.02
2018-12-11T01:08:56.931Z,98222.98
2018-12-11T01:11:25.202Z,98227.55
2018-12-11T01:13:53.596Z,98222.52
2018-12-11T01:16:21.920Z,98225.05
2018-12-11T01:18:50.278Z,98229.59
2018-12-11T01:21:18.689Z,98231.85
2018-12-11T01:23:47.124Z,98232.65
2018-12-11T01:26:15.429Z,98223.75
2018-12-11T01:28:43.727Z,98218.19
2018-12-11T01:31:12.077Z,98218.44
2018-12-11T01:33:40.339Z,98220.12
2018-12-11T01:36:08.621Z,98237.58
2018-12-11T01:38:36.939Z,98233.83
2018-12-11T01:41:05.296Z,98224.19
2018-12-11T01:43:33.668Z,98226.31
2018-12-11T01:46:01.984Z,98230.97
2018-12-11T01:48:30.318Z,98223.03
2018-12-11T01:50:58.633Z,98218.03
2018-12-11T01:53:26.945Z,98116.36
2018-12-11T01:55:55.226Z,98232.23
2018-12-11T01:58:23.836Z,98226.40
2018-12-11T02:00:52.158Z,98228.58
2018-12-11T02:03:20.479Z,98221.50
2018-12-11T02:05:48.768Z,98220.98
2018-12-11T02:08:17.089Z,98226.42
2018-12-11T02:10:45.396Z,98228.33
2018-12-11T02:13:13.700Z,98230.80
2018-12-11T02:15:42.024Z,98226.62
2018-12-11T02:18:10.359Z,98231.50
2018-12-11T02:20:38.648Z,98231.79
2018-12-11T02:23:06.977Z,98223.16
2018-12-11T02:25:35.281Z,98222.84
2018-12-11T02:28:03.598Z,98222.66
2018-12-11T02:30:31.980Z,98218.65
2018-12-11T02:33:00.389Z,98220.52
2018-12-11T02:35:28.788Z,98218.02
2018-12-11T02:37:57.079Z,98217.48
2018-12-11T02:40:25.411Z,98213.89
2018-12-11T02:42:53.705Z,98214.84
2018-12-11T02:45:22.034Z,98216.22
2018-12-11T02:47:50.330Z,98214.93
2018-12-11T02:50:18.628Z,98217.11
2018-12-11T02:52:46.882Z,98215.20
2018-12-11T02:55:15.121Z,98215.99
2018-12-11T02:57:43.368Z,98222.05
2018-12-11T03:00:11.692Z,98217.87
2018-12-11T03:02:39.998Z,98229.70
2018-12-11T03:05:08.354Z,98224.32
2018-12-11T03:07:36.615Z,98226.94
2018-12-11T03:10:06.285Z,98216.58
2018-12-11T03:12:34.537Z,98211.45
2018-12-11T03:15:02.914Z,98217.77
2018-12-11T03:17:31.166Z,98224.57
2018-12-11T03:19:59.406Z,98216.20
2018-12-11T03:22:27.662Z,98218.44
2018-12-11T03:24:55.933Z,98221.80
2018-12-11T03:27:24.190Z,98221.44
2018-12-11T03:29:52.433Z,98215.55
2018-12-11T03:32:20.680Z,98215.55
2018-12-11T03:34:48.946Z,98215.16
2018-12-11T03:37:17.197Z,98218.52
2018-12-11T03:39:45.433Z,98221.49
2018-12-11T03:42:13.698Z,98217.78
2018-12-11T03:44:41.955Z,98221.22
2018-12-11T03:47:10.202Z,98217.95
2018-12-11T03:49:38.570Z,98213.73
2018-12-11T03:52:06.816Z,98223.02
2018-12-11T03:54:35.065Z,98215.02
2018-12-11T03:57:03.426Z,98215.91
2018-12-11T03:59:31.684Z,98212.77
2018-12-11T04:01:59.949Z,98214.97
2018-12-11T04:04:28.286Z,98219.88
2018-12-11T04:06:56.633Z,98214.89
2018-12-11T04:09:24.921Z,98215.72
2018-12-11T04:11:53.906Z,98214.81
2018-12-11T04:14:22.611Z,98210.18
2018-12-11T04:16:50.870Z,98221.22
2018-12-11T04:19:19.119Z,98214.03
2018-12-11T04:21:47.381Z,98210.70
2018-12-11T04:24:15.725Z,98205.28
2018-12-11T04:26:43.963Z,98210.70
2018-12-11T04:29:12.224Z,98201.84
2018-12-11T04:31:40.467Z,98212.57
2018-12-11T04:34:08.704Z,98204.76
2018-12-11T04:36:36.988Z,98213.65
2018-12-11T04:39:06.700Z,98216.16
2018-12-11T04:41:34.940Z,98210.65
2018-12-11T04:44:03.260Z,98207.23
2018-12-11T04:46:31.517Z,98211.95
2018-12-11T04:48:59.765Z,98214.81
2018-12-11T04:51:28.010Z,98211.84
2018-12-11T04:53:56.335Z,98218.16
2018-12-11T04:56:24.628Z,98215.02
2018-12-11T04:58:52.880Z,98208.22
2018-12-11T05:01:21.133Z,98204.38
2018-12-11T05:03:49.377Z,98205.69
2018-12-11T05:06:17.630Z,98210.20
2018-12-11T05:08:45.877Z,98218.33
2018-12-11T05:11:14.174Z,98218.22
2018-12-11T05:13:42.440Z,98217.80
2018-12-11T05:16:10.687Z,98222.23
2018-12-11T05:18:38.964Z,98222.75
2018-12-11T05:21:07.213Z,98218.55
2018-12-11T05:23:35.464Z,98215.57
2018-12-11T05:26:03.761Z,98215.71
2018-12-11T05:28:32.027Z,98215.71
2018-12-11T05:31:00.264Z,98230.38
2018-12-11T05:33:28.568Z,98232.47
2018-12-11T05:35:56.816Z,98231.20
2018-12-11T05:38:25.059Z,98230.02
2018-12-11T05:40:53.368Z,98230.96
2018-12-11T05:43:21.632Z,98236.55
2018-12-11T05:45:49.878Z,98231.92
2018-12-11T05:48:18.123Z,98242.58
2018-12-11T05:50:46.388Z,98241.95
2018-12-11T05:53:14.628Z,98240.70
2018-12-11T05:55:42.867Z,98247.98
2018-12-11T05:58:11.129Z,98246.20
2018-12-11T06:00:39.369Z,98251.75
2018-12-11T06:03:07.648Z,98245.88
2018-12-11T06:05:35.943Z,98253.09
2018-12-11T06:08:04.326Z,98252.36
2018-12-11T06:10:32.584Z,98243.69
2018-12-11T06:13:00.832Z,98244.45
2018-12-11T06:15:29.145Z,98141.52
2018-12-11T06:17:57.383Z,98249.00
2018-12-11T06:20:25.640Z,98239.37
2018-12-11T06:22:53.888Z,98240.63
2018-12-11T06:25:22.129Z,98251.64
2018-12-11T06:27:50.396Z,98249.17
2018-12-11T06:30:18.644Z,98246.58
2018-12-11T06:32:46.883Z,98238.45
2018-12-11T06:35:15.193Z,98244.78
2018-12-11T06:37:43.500Z,98242.97
2018-12-11T06:40:11.756Z,98242.88
2018-12-11T06:42:40.104Z,98236.14
2018-12-11T06:45:08.472Z,98243.13
2018-12-11T06:47:36.717Z,98242.80
2018-12-11T06:50:07.146Z,98246.89
2018-12-11T06:52:35.404Z,98247.27
2018-12-11T06:55:03.708Z,98257.05
2018-12-11T06:57:31.948Z,98251.69
2018-12-11T07:00:00.210Z,98263.83
2018-12-11T07:02:28.450Z,98261.70
2018-12-11T07:04:56.692Z,98271.06
2018-12-11T07:07:24.949Z,98267.73
2018-12-11T07:09:53.192Z,98269.15
2018-12-11T07:12:21.464Z,98269.56
2018-12-11T07:14:49.705Z,98270.03
2018-12-11T07:17:17.947Z,98274.56
2018-12-11T07:19:46.208Z,98269.94
2018-12-11T07:22:14.456Z,98270.41
2018-12-11T07:24:42.702Z,98272.63
2018-12-11T07:27:10.960Z,98269.62
2018-12-11T07:29:39.204Z,98269.56
2018-12-11T07:32:07.448Z,98268.34
2018-12-11T07:34:35.706Z,98272.70
2018-12-11T07:37:03.944Z,98269.48
2018-12-11T07:39:32.190Z,98272.58
2018-12-11T07:42:00.463Z,98236.14
2018-12-11T07:44:28.700Z,98268.45
2018-12-11T07:46:56.948Z,98265.97
2018-12-11T07:49:25.196Z,98266.24
2018-12-11T07:51:53.436Z,98265.75
2018-12-11T07:54:21.688Z,98267.31
2018-12-11T07:56:49.930Z,98273.56
2018-12-11T07:59:18.239Z,98278.56
2018-12-11T08:01:46.500Z,98280.40
2018-12-11T08:04:14.753Z,98282.67
2018-12-11T08:06:43.010Z,98292.44
2018-12-11T08:09:11.290Z,98290.95
2018-12-11T08:11:39.609Z,98297.98
2018-12-11T08:14:07.867Z,98292.39
2018-12-11T08:16:36.185Z,98293.72
2018-12-11T08:19:04.589Z,98293.15
2018-12-11T08:21:32.824Z,98291.02
2018-12-11T08:24:01.097Z,98295.47
2018-12-11T08:26:29.333Z,98304.19
2018-12-11T08:28:57.576Z,98300.72
2018-12-11T08:31:25.841Z,98296.09
2018-12-11T08:33:54.108Z,98299.77
2018-12-11T08:36:22.363Z,98298.19
2018-12-11T08:38:51.021Z,98292.70
2018-12-11T08:41:19.288Z,98299.48
2018-12-11T08:43:47.628Z,98289.91
2018-12-11T08:46:15.868Z,98287.97
2018-12-11T08:48:44.116Z,98287.44
2018-12-11T08:51:12.441Z,98284.38
2018-12-11T08:53:40.804Z,98293.50
2018-12-11T08:56:09.142Z,98296.92
2018-12-11T08:58:37.461Z,98297.16
2018-12-11T09:01:05.769Z,98307.28
2018-12-11T09:03:34.028Z,98299.29
2018-12-11T09:06:02.283Z,98305.89
2018-12-11T09:08:30.516Z,98306.58
2018-12-11T09:10:58.773Z,98310.72
2018-12-11T09:13:27.020Z,98317.52
2018-12-11T09:15:55.262Z,98317.35
2018-12-11T09:18:23.521Z,98305.34
2018-12-11T09:20:51.756Z,98308.70
2018-12-11T09:23:20.026Z,98306.60
2018-12-11T09:25:48.381Z,98314.16
2018-12-11T09:28:16.626Z,98309.70
2018-12-11T09:30:44.860Z,98313.84
2018-12-11T09:33:13.136Z,98310.99
2018-12-11T09:35:41.380Z,98319.36
2018-12-11T09:38:09.633Z,98321.63
2018-12-11T09:40:37.900Z,98325.53
2018-12-11T09:43:06.139Z,98321.77
2018-12-11T09:45:34.396Z,98326.56
2018-12-11T09:48:02.660Z,98333.98
2018-12-11T09:50:30.904Z,98323.64
2018-12-11T09:52:59.149Z,98325.05
2018-12-11T09:55:27.401Z,98319.71
2018-12-11T09:57:55.701Z,98326.07
2018-12-11T10:00:27.281Z,98322.79
2018-12-11T10:02:54.216Z,98319.80
2018-12-11T10:05:22.451Z,98321.38
2018-12-11T10:07:50.702Z,98335.25
2018-12-11T10:10:18.971Z,98331.31
2018-12-11T10:12:47.300Z,98334.25
2018-12-11T10:15:15.541Z,98324.41
2018-12-11T10:17:43.805Z,98316.81
2018-12-11T10:20:12.852Z,98332.16
2018-12-11T10:22:41.112Z,98327.06
2018-12-11T10:25:09.472Z,98327.31
2018-12-11T10:27:37.733Z,98325.80
2018-12-11T10:30:09.561Z,98328.04
2018-12-11T10:32:37.800Z,98325.16
2018-12-11T10:35:07.308Z,98321.92
2018-12-11T10:37:35.575Z,98323.86
2018-12-11T10:40:05.293Z,98323.64
2018-12-11T10:42:33.601Z,98312.12
2018-12-11T10:45:01.851Z,98306.00
2018-12-11T10:47:30.096Z,98306.95
2018-12-11T10:49:58.343Z,98309.23
2018-12-11T10:52:26.603Z,98306.28
2018-12-11T10:54:54.840Z,98308.48
2018-12-11T10:57:23.088Z,98311.60
2018-12-11T10:59:51.373Z,98311.94
2018-12-11T11:02:23.525Z,98318.88
2018-12-11T11:04:51.799Z,98315.16
2018-12-11T11:07:20.041Z,98326.47
2018-12-11T11:09:48.318Z,98329.10
2018-12-11T11:12:16.639Z,98323.56
2018-12-11T11:14:44.885Z,98331.96
2018-12-11T11:17:13.244Z,98325.13
2018-12-11T11:19:41.497Z,98325.54
2018-12-11T11:22:09.738Z,98324.92
2018-12-11T11:24:38.002Z,98323.09
2018-12-11T11:27:06.256Z,98325.98
2018-12-11T11:29:34.512Z,98330.02
2018-12-11T11:32:02.761Z,98319.71
2018-12-11T11:34:41.680Z,98313.53
2018-12-11T11:37:09.938Z,98319.95
2018-12-11T11:39:38.176Z,98321.50
2018-12-11T11:42:06.445Z,98317.92
2018-12-11T11:44:34.740Z,98325.47
2018-12-11T11:47:02.972Z,98336.30
2018-12-11T11:49:31.294Z,98342.59
2018-12-11T11:51:59.602Z,98346.19
2018-12-11T11:54:27.847Z,98329.88
2018-12-11T11:56:56.165Z,98332.27
2018-12-11T11:59:24.431Z,98328.56
2018-12-11T12:01:52.761Z,98329.59
2018-12-11T12:04:21.020Z,98325.72
2018-12-11T12:06:49.324Z,98318.90
2018-12-11T12:09:17.572Z,98312.97
2018-12-11T12:11:45.833Z,98311.87
2018-12-11T12:14:14.080Z,98307.28
2018-12-11T12:16:42.341Z,98305.91
2018-12-11T12:19:10.597Z,98303.98
2018-12-11T12:21:38.829Z,98311.14
2018-12-11T12:24:07.093Z,98308.22
2018-12-11T12:26:35.333Z,98313.84
2018-12-11T12:29:03.566Z,98309.52
2018-12-11T12:31:32.081Z,98315.66
2018-12-11T12:34:00.325Z,98321.00
2018-12-11T12:36:28.668Z,98313.30
2018-12-11T12:38:56.934Z,98305.90
2018-12-11T12:41:25.201Z,98311.68
2018-12-11T12:43:53.445Z,98313.87
2018-12-11T12:46:21.690Z,98313.47
2018-12-11T12:48:49.944Z,98311.98
2018-12-11T12:51:18.184Z,98324.51
2018-12-11T12:53:46.457Z,98324.58
2018-12-11T12:56:14.793Z,98328.11
2018-12-11T12:58:43.049Z,98331.14
2018-12-11T13:01:11.313Z,98329.42
2018-12-11T13:03:39.833Z,98328.42
2018-12-11T13:06:08.087Z,98334.52
2018-12-11T13:08:36.345Z,98329.03
2018-12-11T13:11:04.600Z,98327.86
2018-12-11T13:13:32.844Z,98328.61
2018-12-11T13:16:01.101Z,98331.19
2018-12-11T13:18:29.456Z,98327.28
2018-12-11T13:20:57.705Z,98329.30
2018-12-11T13:23:25.943Z,98336.05
2018-12-11T13:25:54.219Z,98333.23
2018-12-11T13:28:22.821Z,98346.09
2018-12-11T13:30:51.231Z,98349.38
2018-12-11T13:33:19.482Z,98352.66
2018-12-11T13:35:47.821Z,98347.66
2018-12-11T13:38:16.093Z,98335.97
2018-12-11T13:40:44.596Z,98337.33
2018-12-11T13:43:12.837Z,98344.27
2018-12-11T13:45:41.105Z,98345.56
2018-12-11T13:48:09.486Z,98343.54
2018-12-11T13:50:37.761Z,98341.23
2018-12-11T13:53:06.147Z,98336.32
2018-12-11T13:55:34.389Z,98336.85
2018-12-11T13:58:02.628Z,98336.19
2018-12-11T14:00:30.944Z,98332.81
2018-12-11T14:02:59.204Z,98327.52
2018-12-11T14:05:27.519Z,98336.59
2018-12-11T14:07:55.784Z,98338.84
2018-12-11T14:10:24.036Z,98342.78
2018-12-11T14:12:52.266Z,98344.11
2018-12-11T14:15:21.076Z,98343.95
2018-12-11T14:17:49.328Z,98344.03
2018-12-11T14:20:17.579Z,98346.02
2018-12-11T14:22:45.818Z,98348.50
2018-12-11T14:27:56.917Z,98351.94
2018-12-11T14:30:25.253Z,98350.52
2018-12-11T14:32:53.496Z,98353.66
2018-12-11T14:35:21.796Z,98344.03
2018-12-11T14:37:50.065Z,98347.60
2018-12-11T14:40:18.315Z,98357.21
2018-12-11T14:42:46.565Z,98352.16
2018-12-11T14:45:14.832Z,98352.53
2018-12-11T14:47:43.119Z,98360.91
2018-12-11T14:50:11.373Z,98352.46
2018-12-11T14:52:39.654Z,98358.36
2018-12-11T14:55:08.108Z,98359.49
2018-12-11T14:57:36.390Z,98355.14
2018-12-11T15:00:06.411Z,98351.28
2018-12-11T15:02:35.054Z,98356.48
2018-12-11T15:05:03.420Z,98355.20
2018-12-11T15:07:31.934Z,98353.28
2018-12-11T15:10:00.209Z,98349.13
2018-12-11T15:12:28.475Z,98345.78
2018-12-11T15:14:56.729Z,98350.18
2018-12-11T15:17:25.009Z,98353.28
2018-12-11T15:19:53.260Z,98354.36
2018-12-11T15:22:21.555Z,98344.78
2018-12-11T15:24:49.887Z,98347.20
2018-12-11T15:27:18.158Z,98352.09
2018-12-11T15:29:46.402Z,98350.73
2018-12-11T15:32:14.681Z,98344.70
2018-12-11T15:34:42.936Z,98348.58
2018-12-11T15:37:11.201Z,98352.50
2018-12-11T15:39:39.481Z,98356.22
2018-12-11T15:42:07.744Z,98356.77
2018-12-11T15:44:36.017Z,98349.46
2018-12-11T15:47:04.335Z,98353.57
2018-12-11T15:49:32.617Z,98350.88
2018-12-11T15:52:00.926Z,98345.27
2018-12-11T15:54:29.202Z,98345.88
2018-12-11T15:56:57.820Z,98350.19
2018-12-11T15:59:26.082Z,98354.31
2018-12-11T16:01:54.377Z,98359.50
2018-12-11T16:04:22.641Z,98362.03
2018-12-11T16:06:50.917Z,98364.23
2018-12-11T16:12:08.711Z,98371.98
2018-12-11T16:14:36.958Z,98372.80
2018-12-11T16:17:05.262Z,98374.09
2018-12-11T16:19:33.597Z,98363.52
2018-12-11T16:22:01.917Z,98372.98
2018-12-11T16:24:30.213Z,98378.81
2018-12-11T16:26:58.485Z,98366.00
2018-12-11T16:29:26.774Z,98366.03
2018-12-11T16:31:55.013Z,98370.63
2018-12-11T16:34:23.272Z,98369.63
2018-12-11T16:36:51.579Z,98373.27
2018-12-11T16:39:19.822Z,98365.39
2018-12-11T16:41:48.099Z,98361.51
2018-12-11T16:44:16.358Z,98361.63
2018-12-11T16:46:44.603Z,98363.83
2018-12-11T16:49:12.915Z,98362.09
2018-12-11T16:51:41.168Z,98365.42
2018-12-11T16:54:09.423Z,98370.81
2018-12-11T16:56:37.684Z,98374.80
2018-12-11T16:59:06.036Z,98375.53
2018-12-11T17:01:34.289Z,98379.44
2018-12-11T17:04:02.537Z,98372.81
2018-12-11T17:06:30.802Z,98372.76
2018-12-11T17:08:59.049Z,98388.38
2018-12-11T17:11:27.296Z,98390.50
2018-12-11T17:13:55.560Z,98394.42
2018-12-11T17:16:23.840Z,98399.08
2018-12-11T17:18:52.101Z,98406.55
2018-12-11T17:21:20.344Z,98404.87
2018-12-11T17:23:48.618Z,98407.41
2018-12-11T17:26:16.875Z,98412.11
2018-12-11T17:28:45.143Z,98408.31
2018-12-11T17:31:13.392Z,98405.09
2018-12-11T17:33:41.681Z,98406.58
2018-12-11T17:36:09.933Z,98400.16
2018-12-11T17:38:38.201Z,98409.74
2018-12-11T17:41:06.450Z,98405.72
2018-12-11T17:43:34.700Z,98408.78
2018-12-11T17:46:02.959Z,98409.64
2018-12-11T17:48:31.268Z,98412.27
2018-12-11T17:50:59.794Z,98416.36
2018-12-11T17:53:28.416Z,98414.94
2018-12-11T17:55:56.685Z,98407.37
2018-12-11T17:58:24.972Z,98409.52
2018-12-11T18:00:53.354Z,98417.02
2018-12-11T18:03:21.666Z,98416.29
2018-12-11T18:05:49.909Z,98411.00
2018-12-11T18:08:18.190Z,98405.93
2018-12-11T18:10:46.462Z,98407.23
2018-12-11T18:13:14.756Z,98414.88
2018-12-11T18:15:43.015Z,98412.05
2018-12-11T18:18:11.304Z,98381.22
2018-12-11T18:20:39.646Z,98413.13
2018-12-11T18:23:08.127Z,98412.02
2018-12-11T18:25:36.455Z,98416.61
2018-12-11T18:28:04.901Z,98416.80
2018-12-11T18:30:33.423Z,98417.14
2018-12-11T18:33:01.916Z,98426.33
2018-12-11T18:35:30.765Z,98424.50
2018-12-11T18:37:59.624Z,98431.17
2018-12-11T18:40:28.656Z,98430.73
2018-12-11T18:42:57.777Z,98431.02
2018-12-11T18:45:27.007Z,98432.00
2018-12-11T18:47:56.095Z,98425.80
2018-12-11T18:50:25.281Z,98426.33
2018-12-11T18:52:54.488Z,98424.27
2018-12-11T18:55:23.671Z,98423.45
2018-12-11T18:57:52.854Z,98429.69
2018-12-11T19:00:22.199Z,98430.45
2018-12-11T19:02:51.359Z,98432.85
2018-12-11T19:05:20.566Z,98439.91
2018-12-11T19:07:49.842Z,98447.89
2018-12-11T19:10:19.110Z,98433.17
2018-12-11T19:12:48.312Z,98434.41
2018-12-11T19:15:17.788Z,98445.98
2018-12-11T19:17:46.976Z,98448.75
2018-12-11T19:20:16.604Z,98446.13
2018-12-11T19:22:45.939Z,98425.22
2018-12-11T19:25:18.126Z,98434.81
2018-12-11T19:27:48.078Z,98437.51
2018-12-11T19:30:17.578Z,98436.40
2018-12-11T19:32:46.844Z,98437.75
2018-12-11T19:35:16.087Z,98437.87
2018-12-11T19:37:45.430Z,98438.94
2018-12-11T19:40:14.708Z,98442.66
2018-12-11T19:42:43.948Z,98438.84
2018-12-11T19:45:13.587Z,98440.13
2018-12-11T19:47:42.918Z,98437.83
2018-12-11T19:50:12.219Z,98434.72
2018-12-11T19:52:41.526Z,98432.31
2018-12-11T19:55:10.908Z,98436.11
2018-12-11T19:57:40.171Z,98439.66
2018-12-11T20:00:10.397Z,98444.54
2018-12-11T20:02:39.666Z,98442.01
2018-12-11T20:05:09.007Z,98442.19
2018-12-11T20:07:38.584Z,98439.23
2018-12-11T20:10:13.774Z,98442.75
2018-12-11T20:12:43.261Z,98440.73
2018-12-11T20:15:12.545Z,98439.74
2018-12-11T20:17:41.787Z,98436.89
2018-12-11T20:20:30.465Z,98438.18
2018-12-11T20:22:59.746Z,98443.42
2018-12-11T20:25:29.016Z,98439.21
2018-12-11T20:27:58.432Z,98442.19
2018-12-11T20:30:27.770Z,98448.79
2018-12-11T20:32:56.992Z,98455.41
2018-12-11T20:35:26.313Z,98454.29
2018-12-11T20:37:55.771Z,98454.23
2018-12-11T20:40:25.489Z,98452.89
2018-12-11T20:42:54.931Z,98454.84
2018-12-11T20:45:24.285Z,98460.41
2018-12-11T20:47:53.515Z,98461.61
2018-12-11T20:50:22.794Z,98463.55
2018-12-11T20:52:52.171Z,98461.63
2018-12-11T20:55:21.399Z,98468.61
2018-12-11T20:57:50.680Z,98466.97
2018-12-11T21:00:20.083Z,98469.34
2018-12-11T21:02:49.361Z,98470.78
2018-12-11T21:05:18.630Z,98463.59
2018-12-11T21:07:48.182Z,98461.58
2018-12-11T21:10:17.419Z,98462.05
2018-12-11T21:12:46.733Z,98462.19
2018-12-11T21:15:16.119Z,98462.53
2018-12-11T21:17:45.415Z,98464.39
2018-12-11T21:20:14.672Z,98455.19
2018-12-11T21:22:44.031Z,98431.17
2018-12-11T21:25:13.329Z,98453.31
2018-12-11T21:27:42.578Z,98452.05
2018-12-11T21:30:11.981Z,98455.91
2018-12-11T21:32:41.229Z,98466.80
2018-12-11T21:35:10.503Z,98461.67
2018-12-11T21:37:39.813Z,98467.52
2018-12-11T21:40:09.096Z,98470.67
2018-12-11T21:42:38.295Z,98467.26
2018-12-11T21:45:07.715Z,98471.80
2018-12-11T21:47:36.901Z,98472.69
2018-12-11T21:50:07.411Z,98469.47
2018-12-11T21:52:36.511Z,98464.03
2018-12-11T21:55:06.634Z,98467.18
2018-12-11T21:57:35.349Z,98466.33
2018-12-11T22:00:05.857Z,98466.73
2018-12-11T22:02:34.176Z,98468.14
2018-12-11T22:05:02.447Z,98467.73
2018-12-11T22:07:30.755Z,98467.88
2018-12-11T22:09:59.008Z,98461.67
2018-12-11T22:12:27.729Z,98475.11
2018-12-11T22:14:56.008Z,98463.73
2018-12-11T22:17:24.269Z,98467.42
2018-12-11T22:19:52.513Z,98471.31
2018-12-11T22:22:20.788Z,98469.75
2018-12-11T22:24:49.044Z,98477.66
2018-12-11T22:27:17.292Z,98478.30
2018-12-11T22:29:45.549Z,98478.95
2018-12-11T22:32:13.812Z,98485.63
2018-12-11T22:34:42.052Z,98482.75
2018-12-11T22:37:10.296Z,98485.77
2018-12-11T22:39:38.586Z,98482.48
2018-12-11T22:42:06.843Z,98483.02
2018-12-11T22:44:35.096Z,98486.27
2018-12-11T22:47:03.343Z,98482.60
2018-12-11T22:49:31.588Z,98485.89
2018-12-11T22:51:59.916Z,98485.14
2018-12-11T22:54:28.532Z,98479.59
2018-12-11T22:56:56.786Z,98476.48
2018-12-11T22:59:25.039Z,98479.36
2018-12-11T23:01:53.305Z,98487.91
2018-12-11T23:04:21.572Z,98484.22
2018-12-11T23:06:49.831Z,98486.95
2018-12-11T23:09:18.092Z,98487.14
2018-12-11T23:11:46.462Z,98491.80
2018-12-11T23:14:14.719Z,98494.98
2018-12-11T23:16:42.976Z,98506.58
2018-12-11T23:19:11.301Z,98504.91
2018-12-11T23:21:39.618Z,98509.56
2018-12-11T23:24:07.913Z,98504.38
2018-12-11T23:26:36.197Z,98510.64
2018-12-11T23:29:04.548Z,98507.64
2018-12-11T23:31:32.895Z,98506.97
2018-12-11T23:34:01.203Z,98498.48
2018-12-11T23:36:29.539Z,98501.33
2018-12-11T23:38:57.852Z,98503.48
2018-12-11T23:41:26.182Z,98503.72
2018-12-11T23:43:54.599Z,98405.27
2018-12-11T23:46:22.941Z,98504.33
2018-12-11T23:48:51.261Z,98502.55
2018-12-11T23:51:19.536Z,98508.09
2018-12-11T23:53:47.790Z,98505.05
2018-12-11T23:56:16.037Z,98508.58
2018-12-11T23:58:45.005Z,98508.71
